Time;durP1;ratioP1;P1;durP2;ratioP2;P2;SDS_P1;SDS_P2;PMS_P1;PMS_P2;Temp;Humidity;BMP_temperature;BMP_pressure;BME280_temperature;BME280_humidity;BME280_pressure;Samples;Min_cycle;Max_cycle;Signal;HPM_P1;HPM_P2
2023/05/04 00:00:20;;;;;;;;;;;9.20;92.80;;;;;;5029130;28;19917;-70
2023/05/04 00:02:46;;;;;;;;;;;9.20;93.00;;;;;;5018843;28;19924;-70
2023/05/04 00:05:11;;;;;;;;;;;9.10;93.10;;;;;;4968534;28;19928;-69
2023/05/04 00:07:37;;;;;;;;;;;9.10;93.20;;;;;;4997465;28;19921;-69
2023/05/04 00:10:03;;;;;;;;;;;9.10;93.20;;;;;;5023454;28;19917;-70
2023/05/04 00:12:29;;;;;;;;;;;9.10;93.30;;;;;;5031320;28;19944;-70
2023/05/04 00:14:55;;;;;;;;;;;9.10;93.30;;;;;;5013290;28;20223;-70
2023/05/04 00:17:20;;;;;;;;;;;9.00;93.40;;;;;;5007946;28;19925;-70
2023/05/04 00:19:46;;;;;;;;;;;9.00;93.50;;;;;;4978785;28;19925;-70
2023/05/04 00:22:12;;;;;;;;;;;9.00;93.50;;;;;;5024205;28;19924;-69
2023/05/04 00:24:37;;;;;;;;;;;8.90;93.60;;;;;;5015417;28;20329;-70
2023/05/04 00:27:03;;;;;;;;;;;8.90;93.90;;;;;;5016854;28;19943;-70
2023/05/04 00:29:29;;;;;;;;;;;8.90;94.00;;;;;;4999741;28;19948;-69
2023/05/04 00:31:55;;;;;;;;;;;8.80;94.10;;;;;;5009515;28;19913;-70
2023/05/04 00:34:20;;;;;;;;;;;8.80;94.30;;;;;;5011088;28;19975;-70
2023/05/04 00:36:46;;;;;;;;;;;8.80;94.20;;;;;;5009397;28;20003;-69
2023/05/04 00:39:12;;;;;;;;;;;8.70;94.10;;;;;;5008988;28;19933;-70
2023/05/04 00:41:38;;;;;;;;;;;8.80;94.20;;;;;;5003975;28;19913;-70
2023/05/04 00:44:04;;;;;;;;;;;8.70;94.30;;;;;;5031202;28;19920;-70
2023/05/04 00:46:30;;;;;;;;;;;8.70;94.30;;;;;;4993666;28;19960;-70
2023/05/04 00:48:58;;;;;;;;;;;8.70;94.40;;;;;;4995230;28;19940;-69
2023/05/04 00:51:23;;;;;;;;;;;8.70;94.30;;;;;;4991182;28;19917;-70
2023/05/04 00:53:49;;;;;;;;;;;8.70;94.30;;;;;;5010775;28;19917;-70
2023/05/04 00:56:15;;;;;;;;;;;8.60;94.40;;;;;;5005468;28;19945;-70
2023/05/04 00:58:41;;;;;;;;;;;8.60;94.40;;;;;;5007138;28;20311;-70
2023/05/04 01:01:07;;;;;;;;;;;8.60;94.30;;;;;;5011702;28;19963;-70
2023/05/04 01:03:32;;;;;;;;;;;8.50;94.40;;;;;;5023762;28;19922;-70
2023/05/04 01:06:07;;;;;;;;;;;8.50;94.50;;;;;;5007999;28;19936;-70
2023/05/04 01:08:33;;;;;;;;;;;8.50;94.70;;;;;;4992876;28;19917;-70
2023/05/04 01:11:09;;;;;;;;;;;8.50;94.90;;;;;;4996481;28;19944;-70
2023/05/04 01:13:35;;;;;;;;;;;8.40;94.90;;;;;;5008824;28;19922;-70
2023/05/04 01:16:01;;;;;;;;;;;8.40;95.10;;;;;;5000199;28;20294;-70
2023/05/04 01:18:26;;;;;;;;;;;8.40;95.20;;;;;;5004048;28;19979;-70
2023/05/04 01:20:52;;;;;;;;;;;8.30;95.60;;;;;;4992117;28;19957;-70
2023/05/04 01:23:18;;;;;;;;;;;8.30;95.60;;;;;;4992955;28;19913;-70
2023/05/04 01:25:48;;;;;;;;;;;8.30;95.60;;;;;;4989980;28;19922;-70
2023/05/04 01:28:17;;;;;;;;;;;8.30;95.70;;;;;;4986439;28;19957;-70
2023/05/04 01:30:43;;;;;;;;;;;8.10;96.00;;;;;;4992536;28;20651;-70
2023/05/04 01:33:09;;;;;;;;;;;8.10;95.90;;;;;;4991400;28;20327;-70
2023/05/04 01:35:34;;;;;;;;;;;8.10;95.80;;;;;;5004888;28;19949;-70
2023/05/04 01:38:00;;;;;;;;;;;8.10;95.80;;;;;;4991338;28;19921;-70
2023/05/04 01:40:26;;;;;;;;;;;8.10;95.90;;;;;;4999575;28;19918;-70
2023/05/04 01:42:51;;;;;;;;;;;8.10;96.00;;;;;;4978300;28;19918;-70
2023/05/04 01:45:17;;;;;;;;;;;8.10;96.10;;;;;;5004449;28;19954;-70
2023/05/04 01:47:43;;;;;;;;;;;8.00;96.10;;;;;;4976934;28;19921;-70
2023/05/04 01:50:09;;;;;;;;;;;8.00;96.10;;;;;;4989084;28;20029;-70
2023/05/04 01:52:35;;;;;;;;;;;8.00;96.00;;;;;;4976147;28;20394;-70
2023/05/04 01:55:00;;;;;;;;;;;8.00;96.20;;;;;;4998854;28;19918;-70
2023/05/04 01:57:26;;;;;;;;;;;7.90;95.90;;;;;;4995044;28;19925;-70
2023/05/04 01:59:52;;;;;;;;;;;7.90;95.90;;;;;;4993118;28;19998;-70
2023/05/04 02:02:17;;;;;;;;;;;7.80;96.20;;;;;;4987302;28;20266;-69
2023/05/04 02:04:43;;;;;;;;;;;7.80;96.40;;;;;;4993945;28;19941;-69
2023/05/04 02:07:08;;;;;;;;;;;7.80;96.60;;;;;;5006973;28;19925;-70
2023/05/04 02:09:35;;;;;;;;;;;7.70;96.60;;;;;;4984670;28;19918;-70
2023/05/04 02:12:01;;;;;;;;;;;7.60;96.70;;;;;;4992254;28;19928;-69
2023/05/04 02:14:27;;;;;;;;;;;7.60;96.90;;;;;;4990357;28;19933;-70
2023/05/04 02:16:52;;;;;;;;;;;7.60;96.90;;;;;;5007798;28;19926;-70
2023/05/04 02:19:18;;;;;;;;;;;7.60;96.90;;;;;;5008424;28;19932;-70
2023/05/04 02:21:44;;;;;;;;;;;7.60;96.80;;;;;;5017627;28;19917;-70
2023/05/04 02:24:09;;;;;;;;;;;7.60;96.70;;;;;;4997144;28;19928;-70
2023/05/04 02:26:35;;;;;;;;;;;7.60;97.00;;;;;;5000955;28;20062;-70
2023/05/04 02:29:02;;;;;;;;;;;7.60;96.90;;;;;;5005016;28;19917;-70
2023/05/04 02:31:28;;;;;;;;;;;7.60;96.80;;;;;;5004113;28;20226;-70
2023/05/04 02:33:53;;;;;;;;;;;7.60;96.80;;;;;;5027024;28;19913;-69
2023/05/04 02:36:19;;;;;;;;;;;7.60;97.00;;;;;;4989440;28;20384;-70
2023/05/04 02:38:45;;;;;;;;;;;7.60;97.10;;;;;;5011041;28;20046;-70
2023/05/04 02:41:10;;;;;;;;;;;7.60;97.10;;;;;;4987118;28;19924;-71
2023/05/04 02:43:36;;;;;;;;;;;7.60;97.20;;;;;;5004835;28;20254;-70
2023/05/04 02:46:02;;;;;;;;;;;7.60;97.20;;;;;;5021609;28;20282;-70
2023/05/04 02:48:27;;;;;;;;;;;7.60;97.10;;;;;;4987247;28;20044;-70
2023/05/04 02:50:53;;;;;;;;;;;7.60;97.20;;;;;;5021408;28;20270;-69
2023/05/04 02:53:18;;;;;;;;;;;7.50;97.20;;;;;;5030057;28;19924;-69
2023/05/04 02:55:44;;;;;;;;;;;7.50;97.50;;;;;;5021567;28;20012;-70
2023/05/04 02:58:10;;;;;;;;;;;7.40;97.70;;;;;;4999182;28;20308;-70
2023/05/04 03:00:35;;;;;;;;;;;7.40;97.60;;;;;;5007949;28;19953;-70
2023/05/04 03:03:01;;;;;;;;;;;7.40;97.60;;;;;;5000044;28;19921;-69
2023/05/04 03:05:27;;;;;;;;;;;7.40;97.60;;;;;;5012688;28;20346;-69
2023/05/04 03:07:52;;;;;;;;;;;7.40;97.50;;;;;;5026048;28;19913;-70
2023/05/04 03:10:18;;;;;;;;;;;7.40;97.60;;;;;;5024395;28;19913;-69
2023/05/04 03:12:45;;;;;;;;;;;7.40;97.70;;;;;;5000490;28;19929;-70
2023/05/04 03:15:11;;;;;;;;;;;7.40;97.60;;;;;;5000608;28;19978;-69
2023/05/04 03:17:38;;;;;;;;;;;7.40;98.00;;;;;;5023450;28;19925;-70
2023/05/04 03:20:03;;;;;;;;;;;7.30;98.10;;;;;;5003815;28;19933;-69
2023/05/04 03:22:29;;;;;;;;;;;7.30;98.10;;;;;;4988312;28;19917;-70
2023/05/04 03:24:55;;;;;;;;;;;7.30;98.50;;;;;;5029289;28;19943;-70
2023/05/04 03:27:20;;;;;;;;;;;7.30;98.30;;;;;;5014900;28;19936;-70
2023/05/04 03:29:46;;;;;;;;;;;7.30;98.40;;;;;;5021577;28;19917;-70
2023/05/04 03:32:12;;;;;;;;;;;7.30;98.30;;;;;;5014302;28;19913;-70
2023/05/04 03:34:37;;;;;;;;;;;7.30;98.20;;;;;;4978258;28;19917;-70
2023/05/04 03:37:03;;;;;;;;;;;7.30;98.20;;;;;;5021711;28;20276;-69
2023/05/04 03:39:29;;;;;;;;;;;7.30;98.10;;;;;;5027532;28;19925;-70
2023/05/04 03:41:54;;;;;;;;;;;7.30;98.30;;;;;;4972185;28;20307;-70
2023/05/04 03:44:20;;;;;;;;;;;7.30;98.30;;;;;;5016914;28;20348;-70
2023/05/04 03:46:46;;;;;;;;;;;7.30;98.20;;;;;;5030050;28;19918;-70
2023/05/04 03:49:12;;;;;;;;;;;7.30;98.20;;;;;;5027091;28;19925;-70
2023/05/04 03:51:38;;;;;;;;;;;7.30;98.30;;;;;;5021532;28;19940;-69
2023/05/04 03:54:03;;;;;;;;;;;7.30;98.30;;;;;;4998040;28;19914;-69
2023/05/04 03:56:29;;;;;;;;;;;7.30;98.30;;;;;;5015070;28;19974;-69
2023/05/04 03:58:54;;;;;;;;;;;7.30;98.40;;;;;;4992462;28;20012;-69
2023/05/04 04:01:20;;;;;;;;;;;7.30;98.50;;;;;;5029111;28;20306;-69
2023/05/04 04:03:46;;;;;;;;;;;7.30;98.70;;;;;;5012957;28;19928;-69
2023/05/04 04:06:13;;;;;;;;;;;7.30;99.00;;;;;;5000604;28;19917;-69
2023/05/04 04:08:38;;;;;;;;;;;7.30;99.20;;;;;;5022660;28;19956;-69
2023/05/04 04:11:04;;;;;;;;;;;7.20;99.40;;;;;;5007005;28;20349;-69
2023/05/04 04:13:29;;;;;;;;;;;7.30;99.70;;;;;;5005429;28;19917;-69
2023/05/04 04:15:55;;;;;;;;;;;7.30;99.60;;;;;;5009667;28;19999;-69
2023/05/04 04:18:21;;;;;;;;;;;7.30;99.90;;;;;;5005934;28;19929;-70
2023/05/04 04:20:47;;;;;;;;;;;7.30;99.60;;;;;;4988530;28;19948;-69
2023/05/04 04:23:12;;;;;;;;;;;7.30;99.60;;;;;;5024653;28;19917;-69
2023/05/04 04:25:38;;;;;;;;;;;7.40;99.60;;;;;;5028642;28;19913;-69
2023/05/04 04:28:04;;;;;;;;;;;7.40;99.70;;;;;;5008440;28;20172;-69
2023/05/04 04:30:29;;;;;;;;;;;7.40;99.60;;;;;;4999250;28;19917;-69
2023/05/04 04:32:56;;;;;;;;;;;7.40;99.60;;;;;;4964716;28;19920;-69
2023/05/04 04:35:26;;;;;;;;;;;7.40;99.50;;;;;;4992612;28;19986;-69
2023/05/04 04:37:52;;;;;;;;;;;7.50;99.60;;;;;;4993100;28;20063;-69
2023/05/04 04:40:17;;;;;;;;;;;7.40;99.50;;;;;;4986518;28;20007;-69
2023/05/04 04:42:43;;;;;;;;;;;7.50;99.80;;;;;;4992585;28;19916;-69
2023/05/04 04:45:09;;;;;;;;;;;7.50;99.50;;;;;;5015684;28;19928;-69
2023/05/04 04:47:34;;;;;;;;;;;7.40;99.40;;;;;;5015570;28;20078;-69
2023/05/04 04:50:00;;;;;;;;;;;7.40;99.60;;;;;;5026404;28;20008;-69
2023/05/04 04:52:26;;;;;;;;;;;7.50;99.60;;;;;;5009524;28;20086;-69
2023/05/04 04:54:51;;;;;;;;;;;7.40;99.60;;;;;;5011190;28;19917;-69
2023/05/04 04:57:17;;;;;;;;;;;7.50;99.70;;;;;;5013671;28;20338;-69
2023/05/04 04:59:42;;;;;;;;;;;7.50;99.80;;;;;;4995140;28;20537;-69
2023/05/04 05:02:09;;;;;;;;;;;7.50;99.70;;;;;;5026580;28;19917;-69
2023/05/04 05:04:40;;;;;;;;;;;7.50;99.70;;;;;;5015647;28;20011;-69
2023/05/04 05:07:07;;;;;;;;;;;7.50;99.60;;;;;;5024597;28;20236;-69
2023/05/04 05:09:33;;;;;;;;;;;7.50;99.60;;;;;;5012749;28;19925;-69
2023/05/04 05:11:59;;;;;;;;;;;7.50;99.80;;;;;;4982626;28;19913;-69
2023/05/04 05:14:26;;;;;;;;;;;7.50;99.80;;;;;;4967771;28;19917;-69
2023/05/04 05:16:52;;;;;;;;;;;7.60;99.90;;;;;;5021940;28;19913;-69
2023/05/04 05:19:18;;;;;;;;;;;7.60;99.90;;;;;;5005003;28;19926;-69
2023/05/04 05:21:43;;;;;;;;;;;7.60;99.90;;;;;;5002428;28;19922;-69
2023/05/04 05:24:09;;;;;;;;;;;7.70;99.90;;;;;;4989015;28;20344;-69
2023/05/04 05:26:35;;;;;;;;;;;7.70;99.90;;;;;;4988786;28;19976;-69
2023/05/04 05:29:01;;;;;;;;;;;7.80;99.90;;;;;;5018919;28;19917;-69
2023/05/04 05:31:27;;;;;;;;;;;7.80;99.90;;;;;;4998897;28;19922;-69
2023/05/04 05:33:52;;;;;;;;;;;7.90;99.90;;;;;;5003527;28;19913;-69
2023/05/04 05:36:18;;;;;;;;;;;7.90;99.90;;;;;;5020243;28;19917;-69
2023/05/04 05:38:44;;;;;;;;;;;7.90;99.90;;;;;;5008451;28;19921;-70
2023/05/04 05:41:10;;;;;;;;;;;8.00;99.90;;;;;;5003368;28;19917;-69
2023/05/04 05:43:37;;;;;;;;;;;8.00;99.90;;;;;;5007165;28;19928;-70
2023/05/04 05:46:04;;;;;;;;;;;8.10;99.90;;;;;;4998203;28;19940;-69
2023/05/04 05:48:29;;;;;;;;;;;8.10;99.90;;;;;;5024711;28;19913;-69
2023/05/04 05:50:55;;;;;;;;;;;8.20;99.90;;;;;;5008917;28;19914;-69
2023/05/04 05:53:21;;;;;;;;;;;8.20;99.90;;;;;;4993008;28;20341;-69
2023/05/04 05:55:46;;;;;;;;;;;8.30;99.90;;;;;;4998536;28;19917;-69
2023/05/04 05:58:12;;;;;;;;;;;8.30;99.90;;;;;;5004440;28;20303;-69
2023/05/04 06:00:38;;;;;;;;;;;8.30;99.90;;;;;;5009318;28;19924;-70
2023/05/04 06:03:03;;;;;;;;;;;8.40;99.90;;;;;;5012906;28;19928;-69
2023/05/04 06:05:29;;;;;;;;;;;8.40;99.90;;;;;;5006349;28;20594;-69
2023/05/04 06:07:55;;;;;;;;;;;8.40;99.90;;;;;;5024081;28;19921;-69
2023/05/04 06:10:21;;;;;;;;;;;8.50;99.90;;;;;;5020731;28;19967;-69
2023/05/04 06:12:46;;;;;;;;;;;8.50;99.90;;;;;;5001551;28;20019;-70
2023/05/04 06:15:13;;;;;;;;;;;8.50;99.90;;;;;;5016050;28;19924;-69
2023/05/04 06:17:39;;;;;;;;;;;8.60;99.90;;;;;;5038336;28;19981;-69
2023/05/04 06:20:05;;;;;;;;;;;8.70;99.90;;;;;;5033037;28;20290;-69
2023/05/04 06:22:31;;;;;;;;;;;8.70;99.90;;;;;;5007686;28;20797;-70
2023/05/04 06:24:56;;;;;;;;;;;8.70;99.90;;;;;;5010753;28;19913;-69
2023/05/04 06:27:23;;;;;;;;;;;8.80;99.90;;;;;;5011345;28;19925;-69
2023/05/04 06:29:49;;;;;;;;;;;8.80;99.90;;;;;;4998135;28;19918;-70
2023/05/04 06:32:14;;;;;;;;;;;8.90;99.90;;;;;;5012186;28;19979;-69
2023/05/04 06:34:40;;;;;;;;;;;9.00;99.90;;;;;;5003148;28;20286;-69
2023/05/04 06:37:05;;;;;;;;;;;9.00;99.90;;;;;;4992239;28;19924;-69
2023/05/04 06:39:31;;;;;;;;;;;9.10;99.90;;;;;;5000877;28;19971;-69
2023/05/04 06:41:57;;;;;;;;;;;9.10;99.90;;;;;;4993886;28;20400;-70
2023/05/04 06:44:22;;;;;;;;;;;9.20;99.90;;;;;;5031956;28;20004;-69
2023/05/04 06:46:48;;;;;;;;;;;9.20;99.90;;;;;;5006375;28;19928;-69
2023/05/04 06:49:16;;;;;;;;;;;9.30;99.90;;;;;;4994822;28;19971;-69
2023/05/04 06:51:42;;;;;;;;;;;9.40;99.90;;;;;;4999145;28;20389;-69
2023/05/04 06:54:07;;;;;;;;;;;9.40;99.90;;;;;;5012166;28;19996;-69
2023/05/04 06:56:33;;;;;;;;;;;9.50;99.90;;;;;;5008865;28;20015;-70
2023/05/04 06:58:59;;;;;;;;;;;9.50;99.90;;;;;;5019930;28;20040;-69
2023/05/04 07:01:24;;;;;;;;;;;9.60;99.90;;;;;;5030117;28;19961;-70
2023/05/04 07:03:50;;;;;;;;;;;9.70;99.90;;;;;;5021130;28;19917;-70
2023/05/04 07:06:16;;;;;;;;;;;9.80;99.90;;;;;;5030218;28;19932;-70
2023/05/04 07:08:42;;;;;;;;;;;9.80;99.90;;;;;;4998611;28;19928;-70
2023/05/04 07:11:08;;;;;;;;;;;9.90;99.90;;;;;;5022129;28;19917;-70
2023/05/04 07:13:33;;;;;;;;;;;10.00;99.90;;;;;;4998946;28;19914;-70
2023/05/04 07:15:59;;;;;;;;;;;10.10;99.90;;;;;;4987928;28;19943;-70
2023/05/04 07:18:25;;;;;;;;;;;10.20;99.90;;;;;;5024891;28;19949;-69
2023/05/04 07:20:51;;;;;;;;;;;10.30;99.90;;;;;;5010094;28;19925;-69
2023/05/04 07:23:16;;;;;;;;;;;10.40;99.90;;;;;;5001966;28;20609;-69
2023/05/04 07:25:42;;;;;;;;;;;10.50;99.90;;;;;;4989426;28;20040;-69
2023/05/04 07:28:07;;;;;;;;;;;10.60;99.90;;;;;;5003171;28;19920;-69
2023/05/04 07:30:33;;;;;;;;;;;10.70;99.90;;;;;;4981969;28;19917;-68
2023/05/04 07:32:59;;;;;;;;;;;10.80;99.90;;;;;;4998074;28;19928;-69
2023/05/04 07:35:25;;;;;;;;;;;10.90;99.90;;;;;;4988541;28;19921;-69
2023/05/04 07:37:51;;;;;;;;;;;11.00;99.90;;;;;;5039550;28;19956;-68
2023/05/04 07:40:17;;;;;;;;;;;11.20;99.90;;;;;;5002826;28;20072;-69
2023/05/04 07:42:43;;;;;;;;;;;11.20;99.70;;;;;;5009980;28;19913;-69
2023/05/04 07:45:09;;;;;;;;;;;11.30;99.80;;;;;;5026890;28;19955;-68
2023/05/04 07:47:35;;;;;;;;;;;11.40;99.70;;;;;;5023642;28;19921;-68
2023/05/04 07:50:02;;;;;;;;;;;11.50;98.90;;;;;;4995900;28;19925;-68
2023/05/04 07:52:28;;;;;;;;;;;11.60;98.70;;;;;;5014221;28;19952;-68
2023/05/04 07:54:54;;;;;;;;;;;11.70;98.30;;;;;;4990089;28;20684;-68
2023/05/04 07:57:20;;;;;;;;;;;11.80;97.90;;;;;;5014008;28;19923;-68
2023/05/04 07:59:45;;;;;;;;;;;11.90;98.00;;;;;;4999798;28;19945;-68
2023/05/04 08:02:11;;;;;;;;;;;12.00;97.90;;;;;;5023754;28;19920;-68
2023/05/04 08:04:38;;;;;;;;;;;12.00;97.40;;;;;;5031405;28;19920;-70
2023/05/04 08:07:03;;;;;;;;;;;12.10;96.70;;;;;;5020813;28;19917;-68
2023/05/04 08:09:29;;;;;;;;;;;12.10;95.30;;;;;;5033367;28;19999;-68
2023/05/04 08:11:55;;;;;;;;;;;12.20;96.00;;;;;;5025175;28;19917;-68
2023/05/04 08:14:21;;;;;;;;;;;12.30;95.40;;;;;;5015361;28;20360;-68
2023/05/04 08:16:47;;;;;;;;;;;12.30;95.70;;;;;;5020418;28;19996;-68
2023/05/04 08:19:13;;;;;;;;;;;12.40;95.00;;;;;;5009227;28;20339;-68
2023/05/04 08:21:40;;;;;;;;;;;12.50;94.80;;;;;;5010242;28;19995;-68
2023/05/04 08:24:06;;;;;;;;;;;12.50;94.80;;;;;;5013834;28;19925;-68
2023/05/04 08:26:31;;;;;;;;;;;12.60;93.80;;;;;;5021385;28;20322;-68
2023/05/04 08:29:06;;;;;;;;;;;12.60;94.40;;;;;;5022085;28;19928;-68
2023/05/04 08:31:32;;;;;;;;;;;12.80;94.60;;;;;;4999644;28;19972;-68
2023/05/04 08:33:58;;;;;;;;;;;12.80;94.20;;;;;;5003653;28;19948;-68
2023/05/04 08:36:25;;;;;;;;;;;13.00;93.90;;;;;;5030253;28;19913;-68
2023/05/04 08:38:52;;;;;;;;;;;13.00;94.20;;;;;;5014569;28;19951;-68
2023/05/04 08:41:18;;;;;;;;;;;13.10;93.90;;;;;;4989872;28;19924;-68
2023/05/04 08:43:45;;;;;;;;;;;13.10;93.20;;;;;;5021620;28;19917;-68
2023/05/04 08:46:17;;;;;;;;;;;13.20;92.80;;;;;;5021124;28;19920;-68
2023/05/04 08:48:43;;;;;;;;;;;13.30;92.40;;;;;;4994964;28;19921;-68
2023/05/04 08:51:09;;;;;;;;;;;13.50;92.50;;;;;;4988585;28;19917;-68
2023/05/04 08:53:35;;;;;;;;;;;13.50;92.30;;;;;;5012503;28;19921;-69
2023/05/04 08:56:03;;;;;;;;;;;13.70;91.10;;;;;;5031982;28;19917;-68
2023/05/04 08:58:28;;;;;;;;;;;13.70;91.60;;;;;;5011734;28;19964;-68
2023/05/04 09:00:54;;;;;;;;;;;13.80;90.60;;;;;;5015828;28;19972;-68
2023/05/04 09:03:21;;;;;;;;;;;13.80;87.80;;;;;;5000510;28;19921;-68
2023/05/04 09:05:49;;;;;;;;;;;14.00;90.00;;;;;;4996223;28;20238;-69
2023/05/04 09:08:15;;;;;;;;;;;14.00;85.80;;;;;;5009095;28;19921;-69
2023/05/04 09:10:41;;;;;;;;;;;14.10;89.00;;;;;;4990432;28;19917;-68
2023/05/04 09:13:07;;;;;;;;;;;14.10;88.10;;;;;;5015196;28;19917;-68
2023/05/04 09:15:32;;;;;;;;;;;14.10;86.80;;;;;;5019553;28;20032;-68
2023/05/04 09:18:05;;;;;;;;;;;14.10;85.30;;;;;;5002554;28;20729;-69
2023/05/04 09:20:41;;;;;;;;;;;14.20;84.90;;;;;;4995204;28;19939;-68
2023/05/04 09:23:07;;;;;;;;;;;14.20;83.40;;;;;;5007606;28;19929;-68
2023/05/04 09:25:52;;;;;;;;;;;14.20;85.70;;;;;;5008325;28;19918;-69
2023/05/04 09:28:18;;;;;;;;;;;14.30;82.90;;;;;;4983097;28;20337;-68
2023/05/04 09:30:43;;;;;;;;;;;14.30;81.70;;;;;;4990107;28;19917;-69
2023/05/04 09:33:09;;;;;;;;;;;14.30;81.00;;;;;;4994751;28;19913;-70
2023/05/04 09:35:38;;;;;;;;;;;14.30;82.90;;;;;;4990656;28;19948;-69
2023/05/04 09:38:04;;;;;;;;;;;14.40;83.50;;;;;;5025717;28;20219;-69
2023/05/04 09:40:40;;;;;;;;;;;14.60;84.50;;;;;;5000018;28;19936;-69
2023/05/04 09:43:06;;;;;;;;;;;14.60;82.00;;;;;;5009148;28;20348;-68
2023/05/04 09:45:42;;;;;;;;;;;14.60;80.40;;;;;;5011044;28;19921;-68
2023/05/04 09:48:16;;;;;;;;;;;14.60;81.10;;;;;;5008983;28;19947;-69
2023/05/04 09:50:49;;;;;;;;;;;14.70;80.90;;;;;;5003862;28;19925;-68
2023/05/04 09:53:33;;;;;;;;;;;14.90;81.00;;;;;;5023062;28;20027;-68
2023/05/04 09:55:58;;;;;;;;;;;15.00;81.30;;;;;;5010654;28;20386;-68
2023/05/04 09:58:24;;;;;;;;;;;15.20;82.30;;;;;;5016692;28;20015;-69
2023/05/04 10:00:53;;;;;;;;;;;15.20;79.30;;;;;;5026209;28;20011;-68
2023/05/04 10:03:22;;;;;;;;;;;15.30;81.80;;;;;;5011736;28;19920;-69
2023/05/04 10:05:47;;;;;;;;;;;15.50;82.30;;;;;;5014305;28;19917;-68
2023/05/04 10:08:14;;;;;;;;;;;15.50;81.20;;;;;;5019354;28;19987;-69
2023/05/04 10:10:39;;;;;;;;;;;15.60;79.70;;;;;;4993245;28;19917;-68
2023/05/04 10:13:05;;;;;;;;;;;15.70;78.40;;;;;;5016053;28;19999;-71
2023/05/04 10:15:31;;;;;;;;;;;15.70;76.90;;;;;;5014190;28;19956;-71
2023/05/04 10:18:12;;;;;;;;;;;15.70;78.90;;;;;;5005277;28;19920;-71
2023/05/04 10:20:57;;;;;;;;;;;15.80;79.80;;;;;;5037448;28;19917;-71
2023/05/04 10:23:22;;;;;;;;;;;15.90;81.10;;;;;;5014605;28;19917;-71
2023/05/04 10:25:48;;;;;;;;;;;16.00;82.50;;;;;;5022174;28;19929;-71
2023/05/04 10:28:24;;;;;;;;;;;16.10;81.90;;;;;;5015010;28;19960;-71
2023/05/04 10:30:57;;;;;;;;;;;16.30;82.10;;;;;;4992028;28;19918;-71
2023/05/04 10:33:24;;;;;;;;;;;16.40;82.10;;;;;;4998433;28;20035;-71
2023/05/04 10:35:53;;;;;;;;;;;16.40;78.20;;;;;;5013853;28;19923;-71
2023/05/04 10:38:40;;;;;;;;;;;16.40;80.00;;;;;;5005217;28;20058;-71
2023/05/04 10:41:20;;;;;;;;;;;16.40;78.20;;;;;;5006063;28;19917;-71
2023/05/04 10:43:52;;;;;;;;;;;16.50;77.40;;;;;;5024781;28;19918;-71
2023/05/04 10:46:21;;;;;;;;;;;16.50;76.00;;;;;;5019059;28;20214;-72
2023/05/04 10:48:46;;;;;;;;;;;16.50;77.10;;;;;;4997880;28;19917;-71
2023/05/04 10:51:19;;;;;;;;;;;16.50;76.50;;;;;;5007276;28;19913;-71
2023/05/04 10:53:45;;;;;;;;;;;16.60;77.80;;;;;;4998199;28;20345;-71
2023/05/04 10:56:24;;;;;;;;;;;16.80;76.10;;;;;;5011853;28;19918;-71
2023/05/04 10:58:50;;;;;;;;;;;16.90;76.70;;;;;;5016244;28;20385;-71
2023/05/04 11:01:16;;;;;;;;;;;16.90;75.80;;;;;;5014162;28;19917;-71
2023/05/04 11:03:42;;;;;;;;;;;17.10;77.20;;;;;;5018098;28;19928;-71
2023/05/04 11:06:17;;;;;;;;;;;17.30;77.10;;;;;;4975610;28;19913;-71
2023/05/04 11:08:42;;;;;;;;;;;17.30;74.00;;;;;;4985642;28;20381;-71
2023/05/04 11:11:08;;;;;;;;;;;17.20;74.60;;;;;;5013574;28;19936;-71
2023/05/04 11:13:34;;;;;;;;;;;17.20;76.40;;;;;;5018602;28;19913;-71
2023/05/04 11:16:00;;;;;;;;;;;17.40;75.10;;;;;;5015553;28;19913;-71
2023/05/04 11:18:27;;;;;;;;;;;17.40;75.00;;;;;;4997742;28;20250;-72
2023/05/04 11:20:53;;;;;;;;;;;17.60;78.10;;;;;;5011765;28;19991;-72
2023/05/04 11:23:19;;;;;;;;;;;17.70;76.60;;;;;;4998683;28;20008;-73
2023/05/04 11:25:44;;;;;;;;;;;17.70;75.90;;;;;;4996184;28;20064;-72
2023/05/04 11:28:10;;;;;;;;;;;17.80;76.00;;;;;;5004509;28;19918;-73
2023/05/04 11:30:36;;;;;;;;;;;17.80;74.90;;;;;;4991835;28;19974;-72
2023/05/04 11:33:01;;;;;;;;;;;17.80;75.80;;;;;;4985836;28;20334;-72
2023/05/04 11:35:28;;;;;;;;;;;17.70;71.60;;;;;;5005287;28;19917;-72
2023/05/04 11:37:54;;;;;;;;;;;17.70;74.70;;;;;;5027242;28;20011;-72
2023/05/04 11:40:21;;;;;;;;;;;17.90;75.60;;;;;;5010391;28;19996;-72
2023/05/04 11:42:48;;;;;;;;;;;18.00;75.00;;;;;;5002274;28;19952;-72
2023/05/04 11:45:14;;;;;;;;;;;17.70;69.70;;;;;;4995757;28;19917;-72
2023/05/04 11:47:40;;;;;;;;;;;17.70;69.40;;;;;;5011056;28;20249;-73
2023/05/04 11:50:05;;;;;;;;;;;17.90;71.70;;;;;;4994266;28;19913;-72
2023/05/04 11:52:34;;;;;;;;;;;17.90;68.70;;;;;;4993261;28;19987;-73
2023/05/04 11:55:00;;;;;;;;;;;18.00;69.40;;;;;;5014159;28;19928;-72
2023/05/04 11:57:26;;;;;;;;;;;18.00;69.40;;;;;;5003543;28;19913;-72
2023/05/04 11:59:51;;;;;;;;;;;17.90;71.50;;;;;;5014192;28;19925;-72
2023/05/04 12:02:17;;;;;;;;;;;18.10;71.50;;;;;;5013068;28;19975;-72
2023/05/04 12:04:43;;;;;;;;;;;18.40;69.10;;;;;;4991620;28;20510;-71
2023/05/04 12:07:08;;;;;;;;;;;18.30;66.90;;;;;;5026513;28;19924;-73
2023/05/04 12:09:47;;;;;;;;;;;18.40;68.10;;;;;;5015849;28;19924;-71
2023/05/04 12:12:17;;;;;;;;;;;18.40;66.40;;;;;;5012109;28;19918;-70
2023/05/04 12:14:46;;;;;;;;;;;18.70;68.10;;;;;;5011574;28;20357;-70
2023/05/04 12:17:12;;;;;;;;;;;18.80;68.40;;;;;;5037483;28;19929;-69
2023/05/04 12:19:48;;;;;;;;;;;18.80;67.20;;;;;;5033358;28;20414;-70
2023/05/04 12:22:14;;;;;;;;;;;19.00;66.60;;;;;;4993662;28;19917;-69
2023/05/04 12:24:40;;;;;;;;;;;19.10;64.10;;;;;;4995913;28;19917;-71
2023/05/04 12:27:11;;;;;;;;;;;19.00;61.60;;;;;;5009771;28;19913;-71
2023/05/04 12:29:36;;;;;;;;;;;18.90;64.40;;;;;;5000449;28;19924;-70
2023/05/04 12:32:02;;;;;;;;;;;19.10;63.50;;;;;;5009673;28;19917;-70
2023/05/04 12:34:28;;;;;;;;;;;19.10;64.30;;;;;;5007975;28;19913;-70
2023/05/04 12:36:53;;;;;;;;;;;19.40;67.50;;;;;;5002536;28;19980;-70
2023/05/04 12:39:19;;;;;;;;;;;19.50;65.90;;;;;;5002507;28;19932;-70
2023/05/04 12:41:45;;;;;;;;;;;19.70;65.30;;;;;;5013892;28;19917;-72
2023/05/04 12:44:13;;;;;;;;;;;19.60;64.50;;;;;;5018273;28;19975;-72
2023/05/04 12:46:38;;;;;;;;;;;19.70;65.20;;;;;;5017416;28;20044;-72
2023/05/04 12:49:04;;;;;;;;;;;20.00;65.10;;;;;;4998351;28;19940;-72
2023/05/04 12:51:31;;;;;;;;;;;19.90;63.50;;;;;;4979338;28;20324;-72
2023/05/04 12:53:57;;;;;;;;;;;19.90;65.40;;;;;;5017438;28;19924;-76
2023/05/04 12:56:23;;;;;;;;;;;20.10;65.30;;;;;;4990583;28;19948;-76
2023/05/04 12:58:51;;;;;;;;;;;20.30;66.10;;;;;;5014572;28;19971;-76
2023/05/04 13:01:16;;;;;;;;;;;20.40;67.00;;;;;;4983192;28;19960;-76
2023/05/04 13:03:42;;;;;;;;;;;20.50;65.60;;;;;;4988642;28;19964;-77
2023/05/04 13:06:08;;;;;;;;;;;20.60;68.60;;;;;;4993878;28;19984;-77
2023/05/04 13:08:34;;;;;;;;;;;20.80;69.70;;;;;;4994583;28;19952;-77
2023/05/04 13:11:00;;;;;;;;;;;20.90;67.80;;;;;;4996620;28;19914;-77
2023/05/04 13:13:27;;;;;;;;;;;21.00;67.90;;;;;;4995302;28;19943;-76
2023/05/04 13:15:53;;;;;;;;;;;21.10;66.70;;;;;;5016082;28;20361;-79
2023/05/04 13:18:19;;;;;;;;;;;21.10;67.50;;;;;;5015756;28;20227;-77
2023/05/04 13:20:45;;;;;;;;;;;21.20;66.30;;;;;;5007894;28;19979;-76
2023/05/04 13:23:10;;;;;;;;;;;21.20;64.50;;;;;;5000271;28;20400;-76
2023/05/04 13:25:36;;;;;;;;;;;21.10;62.90;;;;;;4988423;28;19936;-76
2023/05/04 13:28:02;;;;;;;;;;;21.10;64.70;;;;;;5006689;28;19965;-76
2023/05/04 13:30:28;;;;;;;;;;;21.30;65.10;;;;;;5019823;28;20003;-77
2023/05/04 13:32:53;;;;;;;;;;;21.40;64.70;;;;;;5013848;28;20052;-77
2023/05/04 13:35:19;;;;;;;;;;;21.50;64.80;;;;;;5017214;28;19917;-76
2023/05/04 13:37:45;;;;;;;;;;;21.70;64.40;;;;;;5010322;28;19968;-76
2023/05/04 13:40:11;;;;;;;;;;;21.80;64.00;;;;;;5033249;28;20253;-78
2023/05/04 13:42:37;;;;;;;;;;;22.00;63.40;;;;;;5006999;28;19924;-77
2023/05/04 13:45:02;;;;;;;;;;;21.90;63.20;;;;;;5018778;28;20312;-76
2023/05/04 13:47:28;;;;;;;;;;;21.60;59.90;;;;;;5018861;28;19960;-77
2023/05/04 13:49:54;;;;;;;;;;;21.60;62.10;;;;;;5036118;28;20008;-76
2023/05/04 13:52:19;;;;;;;;;;;21.80;62.60;;;;;;4983320;28;19923;-77
2023/05/04 13:54:45;;;;;;;;;;;21.80;60.80;;;;;;5028439;28;19951;-77
2023/05/04 13:57:10;;;;;;;;;;;21.80;60.80;;;;;;5017301;28;19967;-77
2023/05/04 13:59:36;;;;;;;;;;;22.10;61.60;;;;;;5000215;28;19917;-78
2023/05/04 14:02:02;;;;;;;;;;;22.00;61.00;;;;;;5022451;28;19921;-77
2023/05/04 14:04:27;;;;;;;;;;;22.20;59.00;;;;;;4973093;28;20285;-74
2023/05/04 14:06:53;;;;;;;;;;;22.30;60.70;;;;;;5012887;28;20232;-74
2023/05/04 14:09:19;;;;;;;;;;;22.20;59.20;;;;;;5008347;28;19928;-74
2023/05/04 14:11:47;;;;;;;;;;;21.70;61.60;;;;;;4996197;28;19999;-74
2023/05/04 14:14:13;;;;;;;;;;;21.70;61.30;;;;;;5025255;28;20043;-75
2023/05/04 14:16:39;;;;;;;;;;;21.60;61.40;;;;;;5005226;28;19983;-74
2023/05/04 14:19:05;;;;;;;;;;;21.70;62.40;;;;;;5018489;28;19925;-72